sensor_id;sensor_type;location;lat;lon;timestamp;temperature;humidity
1429;DHT22;708;51.442;7.016;2022-07-03T00:01:36;21.40;99.90
1429;DHT22;708;51.442;7.016;2022-07-03T00:04:04;21.40;99.90
1429;DHT22;708;51.442;7.016;2022-07-03T00:06:31;21.30;99.90
1429;DHT22;708;51.442;7.016;2022-07-03T00:09:00;21.20;99.90
1429;DHT22;708;51.442;7.016;2022-07-03T00:11:27;21.20;99.90
1429;DHT22;708;51.442;7.016;2022-07-03T00:13:54;21.10;99.90
1429;DHT22;708;51.442;7.016;2022-07-03T00:16:21;21.10;99.90
1429;DHT22;708;51.442;7.016;2022-07-03T00:18:49;21.00;99.90
1429;DHT22;708;51.442;7.016;2022-07-03T00:21:20;21.00;99.90
1429;DHT22;708;51.442;7.016;2022-07-03T00:23:54;20.90;99.90
1429;DHT22;708;51.442;7.016;2022-07-03T00:26:24;20.90;99.90
1429;DHT22;708;51.442;7.016;2022-07-03T00:28:52;20.90;99.90
1429;DHT22;708;51.442;7.016;2022-07-03T00:31:20;20.80;99.90
1429;DHT22;708;51.442;7.016;2022-07-03T00:33:51;20.80;99.90
1429;DHT22;708;51.442;7.016;2022-07-03T00:36:20;20.80;99.90
1429;DHT22;708;51.442;7.016;2022-07-03T00:38:48;20.70;99.90
1429;DHT22;708;51.442;7.016;2022-07-03T00:41:25;20.70;99.90
1429;DHT22;708;51.442;7.016;2022-07-03T00:43:53;20.60;99.90
1429;DHT22;708;51.442;7.016;2022-07-03T00:46:22;20.60;99.90
1429;DHT22;708;51.442;7.016;2022-07-03T00:48:52;20.70;99.90
1429;DHT22;708;51.442;7.016;2022-07-03T00:51:24;20.70;99.90
1429;DHT22;708;51.442;7.016;2022-07-03T00:53:53;20.70;99.90
1429;DHT22;708;51.442;7.016;2022-07-03T00:56:23;20.70;99.90
1429;DHT22;708;51.442;7.016;2022-07-03T00:58:53;20.70;99.90
1429;DHT22;708;51.442;7.016;2022-07-03T01:01:21;20.70;99.90
1429;DHT22;708;51.442;7.016;2022-07-03T01:03:58;20.60;99.90
1429;DHT22;708;51.442;7.016;2022-07-03T01:06:33;20.60;99.90
1429;DHT22;708;51.442;7.016;2022-07-03T01:09:03;20.60;99.90
1429;DHT22;708;51.442;7.016;2022-07-03T01:11:35;20.60;99.90
1429;DHT22;708;51.442;7.016;2022-07-03T01:14:12;20.60;99.90
1429;DHT22;708;51.442;7.016;2022-07-03T01:16:49;20.50;99.90
1429;DHT22;708;51.442;7.016;2022-07-03T01:19:32;20.40;99.90
1429;DHT22;708;51.442;7.016;2022-07-03T01:22:14;20.40;99.90
1429;DHT22;708;51.442;7.016;2022-07-03T01:24:56;20.40;99.90
1429;DHT22;708;51.442;7.016;2022-07-03T01:27:35;20.30;99.90
1429;DHT22;708;51.442;7.016;2022-07-03T01:30:04;20.30;99.90
1429;DHT22;708;51.442;7.016;2022-07-03T01:32:42;20.20;99.90
1429;DHT22;708;51.442;7.016;2022-07-03T01:35:19;20.20;99.90
1429;DHT22;708;51.442;7.016;2022-07-03T01:37:48;20.10;99.90
1429;DHT22;708;51.442;7.016;2022-07-03T01:40:17;20.20;99.90
1429;DHT22;708;51.442;7.016;2022-07-03T01:42:48;20.10;99.90
1429;DHT22;708;51.442;7.016;2022-07-03T01:45:15;20.10;99.90
1429;DHT22;708;51.442;7.016;2022-07-03T01:47:46;20.10;99.90
1429;DHT22;708;51.442;7.016;2022-07-03T01:50:15;20.10;99.90
1429;DHT22;708;51.442;7.016;2022-07-03T01:52:45;20.10;99.90
1429;DHT22;708;51.442;7.016;2022-07-03T01:55:15;20.10;99.90
1429;DHT22;708;51.442;7.016;2022-07-03T01:57:43;20.10;99.90
1429;DHT22;708;51.442;7.016;2022-07-03T02:00:14;20.10;99.90
1429;DHT22;708;51.442;7.016;2022-07-03T02:02:45;20.20;99.90
1429;DHT22;708;51.442;7.016;2022-07-03T02:05:34;20.20;99.90
1429;DHT22;708;51.442;7.016;2022-07-03T02:08:33;20.20;99.90
1429;DHT22;708;51.442;7.016;2022-07-03T02:11:09;20.10;99.90
1429;DHT22;708;51.442;7.016;2022-07-03T02:13:39;20.10;99.90
1429;DHT22;708;51.442;7.016;2022-07-03T02:16:16;20.10;99.90
1429;DHT22;708;51.442;7.016;2022-07-03T02:18:52;20.10;99.90
1429;DHT22;708;51.442;7.016;2022-07-03T02:21:25;20.00;99.90
1429;DHT22;708;51.442;7.016;2022-07-03T02:26:41;19.90;99.90
1429;DHT22;708;51.442;7.016;2022-07-03T02:29:12;19.80;99.90
1429;DHT22;708;51.442;7.016;2022-07-03T02:31:43;19.80;99.90
1429;DHT22;708;51.442;7.016;2022-07-03T02:34:15;19.70;99.90
1429;DHT22;708;51.442;7.016;2022-07-03T02:36:45;19.70;99.90
1429;DHT22;708;51.442;7.016;2022-07-03T02:39:16;19.60;99.90
1429;DHT22;708;51.442;7.016;2022-07-03T02:41:51;19.60;99.90
1429;DHT22;708;51.442;7.016;2022-07-03T02:44:25;19.50;99.90
1429;DHT22;708;51.442;7.016;2022-07-03T02:46:59;19.60;99.90
1429;DHT22;708;51.442;7.016;2022-07-03T02:49:50;19.60;99.90
1429;DHT22;708;51.442;7.016;2022-07-03T02:52:32;19.60;99.90
1429;DHT22;708;51.442;7.016;2022-07-03T02:55:04;19.60;99.90
1429;DHT22;708;51.442;7.016;2022-07-03T02:57:38;19.50;99.90
1429;DHT22;708;51.442;7.016;2022-07-03T03:00:07;19.50;99.90
1429;DHT22;708;51.442;7.016;2022-07-03T03:02:54;19.50;99.90
1429;DHT22;708;51.442;7.016;2022-07-03T03:05:27;19.50;99.90
1429;DHT22;708;51.442;7.016;2022-07-03T03:08:08;19.40;99.90
1429;DHT22;708;51.442;7.016;2022-07-03T03:10:38;19.40;99.90
1429;DHT22;708;51.442;7.016;2022-07-03T03:13:07;19.30;99.90
1429;DHT22;708;51.442;7.016;2022-07-03T03:15:36;19.30;99.90
1429;DHT22;708;51.442;7.016;2022-07-03T03:18:06;19.30;99.90
1429;DHT22;708;51.442;7.016;2022-07-03T03:20:35;19.20;99.90
1429;DHT22;708;51.442;7.016;2022-07-03T03:23:15;19.20;99.90
1429;DHT22;708;51.442;7.016;2022-07-03T03:25:43;19.20;99.90
1429;DHT22;708;51.442;7.016;2022-07-03T03:28:10;19.20;99.90
1429;DHT22;708;51.442;7.016;2022-07-03T03:30:37;19.20;99.90
1429;DHT22;708;51.442;7.016;2022-07-03T03:33:06;19.30;99.90
1429;DHT22;708;51.442;7.016;2022-07-03T03:35:35;19.30;99.90
1429;DHT22;708;51.442;7.016;2022-07-03T03:38:02;19.30;99.90
1429;DHT22;708;51.442;7.016;2022-07-03T03:40:31;19.40;99.90
1429;DHT22;708;51.442;7.016;2022-07-03T03:42:58;19.40;99.90
1429;DHT22;708;51.442;7.016;2022-07-03T03:45:25;19.50;99.90
1429;DHT22;708;51.442;7.016;2022-07-03T03:47:52;19.40;99.90
1429;DHT22;708;51.442;7.016;2022-07-03T03:50:20;19.40;99.90
1429;DHT22;708;51.442;7.016;2022-07-03T03:52:50;19.50;99.90
1429;DHT22;708;51.442;7.016;2022-07-03T03:55:17;19.50;99.90
1429;DHT22;708;51.442;7.016;2022-07-03T03:57:44;19.50;99.90
1429;DHT22;708;51.442;7.016;2022-07-03T04:00:11;19.50;99.90
1429;DHT22;708;51.442;7.016;2022-07-03T04:02:38;19.40;99.90
1429;DHT22;708;51.442;7.016;2022-07-03T04:05:06;19.50;99.90
1429;DHT22;708;51.442;7.016;2022-07-03T04:07:34;19.50;99.90
1429;DHT22;708;51.442;7.016;2022-07-03T04:10:01;19.60;99.90
1429;DHT22;708;51.442;7.016;2022-07-03T04:12:28;19.70;99.90
1429;DHT22;708;51.442;7.016;2022-07-03T04:14:57;19.80;99.90
1429;DHT22;708;51.442;7.016;2022-07-03T04:17:24;19.90;99.90
1429;DHT22;708;51.442;7.016;2022-07-03T04:19:51;20.00;99.90
1429;DHT22;708;51.442;7.016;2022-07-03T04:22:18;20.00;99.90
1429;DHT22;708;51.442;7.016;2022-07-03T04:24:46;20.20;99.90
1429;DHT22;708;51.442;7.016;2022-07-03T04:27:13;20.30;99.90
1429;DHT22;708;51.442;7.016;2022-07-03T04:29:39;20.40;99.90
1429;DHT22;708;51.442;7.016;2022-07-03T04:32:07;20.50;99.90
1429;DHT22;708;51.442;7.016;2022-07-03T04:34:34;20.50;99.90
1429;DHT22;708;51.442;7.016;2022-07-03T04:37:02;20.60;99.90
1429;DHT22;708;51.442;7.016;2022-07-03T04:39:29;20.70;99.90
1429;DHT22;708;51.442;7.016;2022-07-03T04:41:57;20.80;99.90
1429;DHT22;708;51.442;7.016;2022-07-03T04:44:24;21.00;99.90
1429;DHT22;708;51.442;7.016;2022-07-03T04:46:50;21.10;99.90
1429;DHT22;708;51.442;7.016;2022-07-03T04:49:17;21.10;99.90
1429;DHT22;708;51.442;7.016;2022-07-03T04:51:44;21.30;99.90
1429;DHT22;708;51.442;7.016;2022-07-03T04:54:11;21.30;99.90
1429;DHT22;708;51.442;7.016;2022-07-03T04:56:38;21.40;99.90
1429;DHT22;708;51.442;7.016;2022-07-03T04:59:06;21.60;99.90
1429;DHT22;708;51.442;7.016;2022-07-03T05:01:33;21.60;99.90
1429;DHT22;708;51.442;7.016;2022-07-03T05:04:00;21.70;99.90
1429;DHT22;708;51.442;7.016;2022-07-03T05:06:27;21.80;99.90
1429;DHT22;708;51.442;7.016;2022-07-03T05:08:53;21.90;99.90
1429;DHT22;708;51.442;7.016;2022-07-03T05:11:20;22.80;99.90
1429;DHT22;708;51.442;7.016;2022-07-03T05:13:50;24.30;99.90
1429;DHT22;708;51.442;7.016;2022-07-03T05:16:18;26.30;99.90
1429;DHT22;708;51.442;7.016;2022-07-03T05:18:45;27.90;96.50
1429;DHT22;708;51.442;7.016;2022-07-03T05:21:12;29.30;92.70
1429;DHT22;708;51.442;7.016;2022-07-03T05:23:39;30.30;89.70
1429;DHT22;708;51.442;7.016;2022-07-03T05:26:05;30.80;85.30
1429;DHT22;708;51.442;7.016;2022-07-03T05:28:32;31.70;81.40
1429;DHT22;708;51.442;7.016;2022-07-03T05:30:59;32.70;76.70
1429;DHT22;708;51.442;7.016;2022-07-03T05:33:27;33.50;72.40
1429;DHT22;708;51.442;7.016;2022-07-03T05:35:54;34.10;69.00
1429;DHT22;708;51.442;7.016;2022-07-03T05:38:23;34.80;65.70
1429;DHT22;708;51.442;7.016;2022-07-03T05:41:08;35.40;63.10
1429;DHT22;708;51.442;7.016;2022-07-03T05:43:35;35.70;60.30
1429;DHT22;708;51.442;7.016;2022-07-03T05:46:02;35.80;59.30
1429;DHT22;708;51.442;7.016;2022-07-03T05:48:31;36.40;58.20
1429;DHT22;708;51.442;7.016;2022-07-03T05:50:57;36.90;57.00
1429;DHT22;708;51.442;7.016;2022-07-03T05:53:24;37.00;55.90
1429;DHT22;708;51.442;7.016;2022-07-03T05:55:51;37.40;55.40
1429;DHT22;708;51.442;7.016;2022-07-03T05:58:18;37.60;53.90
1429;DHT22;708;51.442;7.016;2022-07-03T06:00:45;38.20;53.20
1429;DHT22;708;51.442;7.016;2022-07-03T06:03:12;38.50;52.30
1429;DHT22;708;51.442;7.016;2022-07-03T06:05:40;38.90;51.50
1429;DHT22;708;51.442;7.016;2022-07-03T06:08:07;39.20;50.50
1429;DHT22;708;51.442;7.016;2022-07-03T06:10:34;39.60;49.70
1429;DHT22;708;51.442;7.016;2022-07-03T06:13:01;40.20;48.00
1429;DHT22;708;51.442;7.016;2022-07-03T06:15:28;40.30;48.30
1429;DHT22;708;51.442;7.016;2022-07-03T06:17:55;40.60;47.60
1429;DHT22;708;51.442;7.016;2022-07-03T06:20:22;40.70;47.30
1429;DHT22;708;51.442;7.016;2022-07-03T06:22:50;40.90;46.50
1429;DHT22;708;51.442;7.016;2022-07-03T06:25:17;41.00;46.20
1429;DHT22;708;51.442;7.016;2022-07-03T06:27:44;41.10;45.60
1429;DHT22;708;51.442;7.016;2022-07-03T06:30:11;41.50;45.50
1429;DHT22;708;51.442;7.016;2022-07-03T06:32:38;41.70;44.60
1429;DHT22;708;51.442;7.016;2022-07-03T06:35:05;41.80;44.30
1429;DHT22;708;51.442;7.016;2022-07-03T06:37:32;42.10;43.80
1429;DHT22;708;51.442;7.016;2022-07-03T06:40:00;42.30;43.00
1429;DHT22;708;51.442;7.016;2022-07-03T06:42:27;42.40;42.80
1429;DHT22;708;51.442;7.016;2022-07-03T06:44:54;42.60;42.10
1429;DHT22;708;51.442;7.016;2022-07-03T06:47:21;42.70;41.90
1429;DHT22;708;51.442;7.016;2022-07-03T06:49:50;42.80;41.80
1429;DHT22;708;51.442;7.016;2022-07-03T06:52:17;42.90;41.70
1429;DHT22;708;51.442;7.016;2022-07-03T06:54:43;43.10;41.50
1429;DHT22;708;51.442;7.016;2022-07-03T06:57:12;43.30;41.20
1429;DHT22;708;51.442;7.016;2022-07-03T06:59:39;43.50;40.70
1429;DHT22;708;51.442;7.016;2022-07-03T07:02:07;43.60;40.50
1429;DHT22;708;51.442;7.016;2022-07-03T07:04:33;43.60;40.80
1429;DHT22;708;51.442;7.016;2022-07-03T07:07:00;43.90;40.90
1429;DHT22;708;51.442;7.016;2022-07-03T07:09:27;44.00;39.90
1429;DHT22;708;51.442;7.016;2022-07-03T07:11:54;43.90;40.00
1429;DHT22;708;51.442;7.016;2022-07-03T07:14:24;44.50;39.40
1429;DHT22;708;51.442;7.016;2022-07-03T07:16:51;44.40;39.40
1429;DHT22;708;51.442;7.016;2022-07-03T07:19:18;44.50;39.20
1429;DHT22;708;51.442;7.016;2022-07-03T07:21:45;44.90;38.70
1429;DHT22;708;51.442;7.016;2022-07-03T07:24:12;45.30;38.20
1429;DHT22;708;51.442;7.016;2022-07-03T07:26:39;45.10;38.50
1429;DHT22;708;51.442;7.016;2022-07-03T07:29:06;45.50;37.90
1429;DHT22;708;51.442;7.016;2022-07-03T07:31:34;45.80;37.60
1429;DHT22;708;51.442;7.016;2022-07-03T07:34:01;45.50;37.50
1429;DHT22;708;51.442;7.016;2022-07-03T07:36:30;45.60;37.40
1429;DHT22;708;51.442;7.016;2022-07-03T07:38:56;45.80;37.10
1429;DHT22;708;51.442;7.016;2022-07-03T07:41:23;45.90;36.80
1429;DHT22;708;51.442;7.016;2022-07-03T07:43:50;45.60;36.50
1429;DHT22;708;51.442;7.016;2022-07-03T07:46:17;45.80;36.60
1429;DHT22;708;51.442;7.016;2022-07-03T07:48:45;45.40;36.50
1429;DHT22;708;51.442;7.016;2022-07-03T07:51:12;45.30;36.80
1429;DHT22;708;51.442;7.016;2022-07-03T07:53:39;44.60;36.50
1429;DHT22;708;51.442;7.016;2022-07-03T07:56:06;44.80;37.40
1429;DHT22;708;51.442;7.016;2022-07-03T07:58:33;44.90;37.20
1429;DHT22;708;51.442;7.016;2022-07-03T08:01:00;45.10;36.90
1429;DHT22;708;51.442;7.016;2022-07-03T08:03:45;45.20;36.50
1429;DHT22;708;51.442;7.016;2022-07-03T08:06:29;45.30;36.40
1429;DHT22;708;51.442;7.016;2022-07-03T08:08:56;45.30;35.90
1429;DHT22;708;51.442;7.016;2022-07-03T08:11:23;45.50;36.10
1429;DHT22;708;51.442;7.016;2022-07-03T08:13:50;45.70;35.40
1429;DHT22;708;51.442;7.016;2022-07-03T08:16:16;45.10;35.60
1429;DHT22;708;51.442;7.016;2022-07-03T08:18:45;45.00;35.70
1429;DHT22;708;51.442;7.016;2022-07-03T08:21:11;44.90;36.40
1429;DHT22;708;51.442;7.016;2022-07-03T08:23:38;44.90;35.70
1429;DHT22;708;51.442;7.016;2022-07-03T08:26:05;45.10;36.10
1429;DHT22;708;51.442;7.016;2022-07-03T08:28:32;45.10;36.30
1429;DHT22;708;51.442;7.016;2022-07-03T08:30:59;45.00;36.40
1429;DHT22;708;51.442;7.016;2022-07-03T08:33:26;44.90;35.90
1429;DHT22;708;51.442;7.016;2022-07-03T08:35:54;44.90;35.70
1429;DHT22;708;51.442;7.016;2022-07-03T08:38:26;45.20;35.80
1429;DHT22;708;51.442;7.016;2022-07-03T08:40:57;45.30;35.50
1429;DHT22;708;51.442;7.016;2022-07-03T08:43:27;45.20;35.40
1429;DHT22;708;51.442;7.016;2022-07-03T08:45:55;44.90;35.70
1429;DHT22;708;51.442;7.016;2022-07-03T08:48:22;44.90;35.40
1429;DHT22;708;51.442;7.016;2022-07-03T08:50:51;44.90;35.50
1429;DHT22;708;51.442;7.016;2022-07-03T08:53:19;44.90;35.20
1429;DHT22;708;51.442;7.016;2022-07-03T08:55:47;44.70;35.90
1429;DHT22;708;51.442;7.016;2022-07-03T08:58:15;44.80;36.00
1429;DHT22;708;51.442;7.016;2022-07-03T09:00:42;45.10;35.70
1429;DHT22;708;51.442;7.016;2022-07-03T09:03:10;45.10;35.30
1429;DHT22;708;51.442;7.016;2022-07-03T09:05:38;45.10;35.60
1429;DHT22;708;51.442;7.016;2022-07-03T09:08:07;45.30;35.40
1429;DHT22;708;51.442;7.016;2022-07-03T09:10:35;45.30;35.20
1429;DHT22;708;51.442;7.016;2022-07-03T09:13:02;45.10;35.40
1429;DHT22;708;51.442;7.016;2022-07-03T09:15:29;45.10;35.00
1429;DHT22;708;51.442;7.016;2022-07-03T09:17:58;45.10;35.40
1429;DHT22;708;51.442;7.016;2022-07-03T09:20:30;44.80;35.40
1429;DHT22;708;51.442;7.016;2022-07-03T09:23:12;44.80;35.60
1429;DHT22;708;51.442;7.016;2022-07-03T09:25:58;44.50;35.70
1429;DHT22;708;51.442;7.016;2022-07-03T09:28:42;44.40;35.90
1429;DHT22;708;51.442;7.016;2022-07-03T09:31:10;44.10;36.70
1429;DHT22;708;51.442;7.016;2022-07-03T09:33:49;44.10;37.00
1429;DHT22;708;51.442;7.016;2022-07-03T09:36:16;44.10;35.90
1429;DHT22;708;51.442;7.016;2022-07-03T09:38:43;44.00;35.90
1429;DHT22;708;51.442;7.016;2022-07-03T09:41:12;43.80;35.70
1429;DHT22;708;51.442;7.016;2022-07-03T09:43:42;43.80;36.10
1429;DHT22;708;51.442;7.016;2022-07-03T09:46:09;43.90;36.10
1429;DHT22;708;51.442;7.016;2022-07-03T09:48:38;43.80;36.30
1429;DHT22;708;51.442;7.016;2022-07-03T09:51:16;43.90;36.30
1429;DHT22;708;51.442;7.016;2022-07-03T09:53:47;43.80;36.20
1429;DHT22;708;51.442;7.016;2022-07-03T09:56:16;43.80;36.20
1429;DHT22;708;51.442;7.016;2022-07-03T09:59:08;43.70;37.00
1429;DHT22;708;51.442;7.016;2022-07-03T10:01:36;43.40;36.80
1429;DHT22;708;51.442;7.016;2022-07-03T10:04:15;43.50;36.60
1429;DHT22;708;51.442;7.016;2022-07-03T10:06:46;42.80;37.40
1429;DHT22;708;51.442;7.016;2022-07-03T10:09:14;42.70;37.10
1429;DHT22;708;51.442;7.016;2022-07-03T10:11:43;42.60;37.00
1429;DHT22;708;51.442;7.016;2022-07-03T10:14:13;42.30;37.20
1429;DHT22;708;51.442;7.016;2022-07-03T10:16:40;42.20;38.00
1429;DHT22;708;51.442;7.016;2022-07-03T10:19:12;42.40;37.60
1429;DHT22;708;51.442;7.016;2022-07-03T10:21:40;42.30;37.50
1429;DHT22;708;51.442;7.016;2022-07-03T10:24:08;42.40;37.80
1429;DHT22;708;51.442;7.016;2022-07-03T10:26:36;42.30;37.20
1429;DHT22;708;51.442;7.016;2022-07-03T10:29:05;42.00;37.80
1429;DHT22;708;51.442;7.016;2022-07-03T10:31:33;41.60;38.50
1429;DHT22;708;51.442;7.016;2022-07-03T10:34:01;41.30;38.50
1429;DHT22;708;51.442;7.016;2022-07-03T10:36:29;40.40;39.10
1429;DHT22;708;51.442;7.016;2022-07-03T10:38:57;39.60;39.60
1429;DHT22;708;51.442;7.016;2022-07-03T10:41:32;39.40;40.50
1429;DHT22;708;51.442;7.016;2022-07-03T10:44:19;38.80;41.20
1429;DHT22;708;51.442;7.016;2022-07-03T10:47:03;38.10;41.70
1429;DHT22;708;51.442;7.016;2022-07-03T10:49:30;37.20;43.10
1429;DHT22;708;51.442;7.016;2022-07-03T10:51:58;36.20;44.00
1429;DHT22;708;51.442;7.016;2022-07-03T10:54:26;35.10;45.20
1429;DHT22;708;51.442;7.016;2022-07-03T10:57:15;34.00;46.40
1429;DHT22;708;51.442;7.016;2022-07-03T11:00:05;33.20;47.70
1429;DHT22;708;51.442;7.016;2022-07-03T11:02:35;32.40;49.50
1429;DHT22;708;51.442;7.016;2022-07-03T11:05:10;32.00;50.10
1429;DHT22;708;51.442;7.016;2022-07-03T11:07:43;31.70;50.50
1429;DHT22;708;51.442;7.016;2022-07-03T11:10:31;31.30;51.00
1429;DHT22;708;51.442;7.016;2022-07-03T11:12:58;30.90;51.40
1429;DHT22;708;51.442;7.016;2022-07-03T11:15:29;30.60;52.30
1429;DHT22;708;51.442;7.016;2022-07-03T11:18:16;30.40;52.60
1429;DHT22;708;51.442;7.016;2022-07-03T11:21:26;30.20;53.10
1429;DHT22;708;51.442;7.016;2022-07-03T11:27:13;29.80;53.80
1429;DHT22;708;51.442;7.016;2022-07-03T11:29:40;29.60;54.20
1429;DHT22;708;51.442;7.016;2022-07-03T11:35:52;29.50;55.00
1429;DHT22;708;51.442;7.016;2022-07-03T11:38:23;29.40;55.60
1429;DHT22;708;51.442;7.016;2022-07-03T11:40:51;29.30;55.70
1429;DHT22;708;51.442;7.016;2022-07-03T11:43:18;29.30;56.00
1429;DHT22;708;51.442;7.016;2022-07-03T11:45:47;29.40;56.10
1429;DHT22;708;51.442;7.016;2022-07-03T11:48:15;29.40;55.50
1429;DHT22;708;51.442;7.016;2022-07-03T11:50:43;29.40;55.40
1429;DHT22;708;51.442;7.016;2022-07-03T11:53:26;29.40;55.30
1429;DHT22;708;51.442;7.016;2022-07-03T11:55:56;29.20;56.50
1429;DHT22;708;51.442;7.016;2022-07-03T11:58:23;29.20;57.00
1429;DHT22;708;51.442;7.016;2022-07-03T12:00:50;29.10;57.30
1429;DHT22;708;51.442;7.016;2022-07-03T12:03:24;29.00;56.70
1429;DHT22;708;51.442;7.016;2022-07-03T12:05:56;29.00;56.90
1429;DHT22;708;51.442;7.016;2022-07-03T12:08:27;29.00;56.40
1429;DHT22;708;51.442;7.016;2022-07-03T12:11:02;29.00;56.50
1429;DHT22;708;51.442;7.016;2022-07-03T12:13:29;29.00;56.80
1429;DHT22;708;51.442;7.016;2022-07-03T12:16:04;29.10;56.70
1429;DHT22;708;51.442;7.016;2022-07-03T12:18:45;29.20;55.50
1429;DHT22;708;51.442;7.016;2022-07-03T12:21:13;29.40;55.10
1429;DHT22;708;51.442;7.016;2022-07-03T12:23:43;29.40;55.30
1429;DHT22;708;51.442;7.016;2022-07-03T12:26:11;29.50;55.40
1429;DHT22;708;51.442;7.016;2022-07-03T12:28:38;29.60;55.00
1429;DHT22;708;51.442;7.016;2022-07-03T12:31:05;29.60;54.60
1429;DHT22;708;51.442;7.016;2022-07-03T12:33:33;29.60;54.40
1429;DHT22;708;51.442;7.016;2022-07-03T12:36:05;29.60;54.40
1429;DHT22;708;51.442;7.016;2022-07-03T12:38:32;29.60;54.90
1429;DHT22;708;51.442;7.016;2022-07-03T12:41:05;29.50;55.30
1429;DHT22;708;51.442;7.016;2022-07-03T12:43:38;29.60;53.60
1429;DHT22;708;51.442;7.016;2022-07-03T12:46:16;29.70;53.70
1429;DHT22;708;51.442;7.016;2022-07-03T12:48:47;29.70;53.80
1429;DHT22;708;51.442;7.016;2022-07-03T12:51:14;29.70;55.10
1429;DHT22;708;51.442;7.016;2022-07-03T12:53:41;29.70;54.70
1429;DHT22;708;51.442;7.016;2022-07-03T12:56:10;29.60;54.60
1429;DHT22;708;51.442;7.016;2022-07-03T12:58:39;29.40;54.70
1429;DHT22;708;51.442;7.016;2022-07-03T13:01:25;29.20;55.10
1429;DHT22;708;51.442;7.016;2022-07-03T13:03:56;29.10;55.50
1429;DHT22;708;51.442;7.016;2022-07-03T13:06:24;29.10;55.40
1429;DHT22;708;51.442;7.016;2022-07-03T13:08:52;29.20;55.80
1429;DHT22;708;51.442;7.016;2022-07-03T13:11:29;29.30;55.10
1429;DHT22;708;51.442;7.016;2022-07-03T13:14:09;29.40;55.20
1429;DHT22;708;51.442;7.016;2022-07-03T13:16:42;29.50;54.80
1429;DHT22;708;51.442;7.016;2022-07-03T13:19:11;29.70;54.50
1429;DHT22;708;51.442;7.016;2022-07-03T13:21:39;29.90;54.50
1429;DHT22;708;51.442;7.016;2022-07-03T13:24:06;30.00;54.00
1429;DHT22;708;51.442;7.016;2022-07-03T13:26:35;30.20;54.00
1429;DHT22;708;51.442;7.016;2022-07-03T13:29:03;30.10;53.50
1429;DHT22;708;51.442;7.016;2022-07-03T13:31:30;30.10;54.00
1429;DHT22;708;51.442;7.016;2022-07-03T13:33:57;30.30;54.00
1429;DHT22;708;51.442;7.016;2022-07-03T13:36:25;30.50;53.80
1429;DHT22;708;51.442;7.016;2022-07-03T13:38:52;30.60;53.80
1429;DHT22;708;51.442;7.016;2022-07-03T13:41:19;30.70;53.20
1429;DHT22;708;51.442;7.016;2022-07-03T13:43:48;30.80;53.30
1429;DHT22;708;51.442;7.016;2022-07-03T13:46:15;31.10;53.20
1429;DHT22;708;51.442;7.016;2022-07-03T13:48:42;31.00;52.70
1429;DHT22;708;51.442;7.016;2022-07-03T13:51:09;30.70;53.00
1429;DHT22;708;51.442;7.016;2022-07-03T13:53:37;30.40;53.30
1429;DHT22;708;51.442;7.016;2022-07-03T13:56:04;30.40;54.50
1429;DHT22;708;51.442;7.016;2022-07-03T13:58:31;30.50;53.50
1429;DHT22;708;51.442;7.016;2022-07-03T14:01:00;30.50;53.80
1429;DHT22;708;51.442;7.016;2022-07-03T14:03:27;30.50;54.00
1429;DHT22;708;51.442;7.016;2022-07-03T14:05:54;30.50;53.60
1429;DHT22;708;51.442;7.016;2022-07-03T14:08:21;30.40;53.70
1429;DHT22;708;51.442;7.016;2022-07-03T14:10:48;30.40;54.00
1429;DHT22;708;51.442;7.016;2022-07-03T14:13:15;30.40;53.10
1429;DHT22;708;51.442;7.016;2022-07-03T14:15:42;30.60;53.20
1429;DHT22;708;51.442;7.016;2022-07-03T14:18:10;30.50;52.90
1429;DHT22;708;51.442;7.016;2022-07-03T14:20:36;30.60;53.40
1429;DHT22;708;51.442;7.016;2022-07-03T14:23:03;30.80;53.20
1429;DHT22;708;51.442;7.016;2022-07-03T14:25:30;30.70;53.30
1429;DHT22;708;51.442;7.016;2022-07-03T14:27:57;30.60;53.30
1429;DHT22;708;51.442;7.016;2022-07-03T14:30:41;30.40;54.00
1429;DHT22;708;51.442;7.016;2022-07-03T14:33:27;30.20;54.20
1429;DHT22;708;51.442;7.016;2022-07-03T14:35:53;30.00;55.10
1429;DHT22;708;51.442;7.016;2022-07-03T14:38:20;29.70;55.20
1429;DHT22;708;51.442;7.016;2022-07-03T14:40:47;29.40;55.60
1429;DHT22;708;51.442;7.016;2022-07-03T14:43:14;29.20;56.10
1429;DHT22;708;51.442;7.016;2022-07-03T14:45:40;29.10;56.30
1429;DHT22;708;51.442;7.016;2022-07-03T14:48:07;29.10;56.90
1429;DHT22;708;51.442;7.016;2022-07-03T14:50:36;28.90;57.00
1429;DHT22;708;51.442;7.016;2022-07-03T14:53:05;28.80;57.20
1429;DHT22;708;51.442;7.016;2022-07-03T14:55:36;28.70;57.70
1429;DHT22;708;51.442;7.016;2022-07-03T14:58:05;28.80;57.70
1429;DHT22;708;51.442;7.016;2022-07-03T15:00:36;29.00;57.40
1429;DHT22;708;51.442;7.016;2022-07-03T15:03:09;29.20;57.60
1429;DHT22;708;51.442;7.016;2022-07-03T15:05:41;29.50;57.30
1429;DHT22;708;51.442;7.016;2022-07-03T15:08:19;29.80;56.70
1429;DHT22;708;51.442;7.016;2022-07-03T15:10:48;30.00;55.80
1429;DHT22;708;51.442;7.016;2022-07-03T15:13:15;29.90;55.50
1429;DHT22;708;51.442;7.016;2022-07-03T15:15:46;29.80;55.40
1429;DHT22;708;51.442;7.016;2022-07-03T15:18:17;29.80;55.60
1429;DHT22;708;51.442;7.016;2022-07-03T15:20:47;29.70;55.60
1429;DHT22;708;51.442;7.016;2022-07-03T15:23:17;29.70;55.40
1429;DHT22;708;51.442;7.016;2022-07-03T15:25:45;29.70;55.20
1429;DHT22;708;51.442;7.016;2022-07-03T15:28:14;29.80;55.00
1429;DHT22;708;51.442;7.016;2022-07-03T15:30:47;29.80;55.00
1429;DHT22;708;51.442;7.016;2022-07-03T15:33:14;29.80;54.80
1429;DHT22;708;51.442;7.016;2022-07-03T15:35:48;29.90;55.40
1429;DHT22;708;51.442;7.016;2022-07-03T15:38:19;29.90;55.30
1429;DHT22;708;51.442;7.016;2022-07-03T15:40:53;29.80;55.20
1429;DHT22;708;51.442;7.016;2022-07-03T15:43:49;29.70;55.30
1429;DHT22;708;51.442;7.016;2022-07-03T15:46:27;29.50;55.80
1429;DHT22;708;51.442;7.016;2022-07-03T15:49:19;29.60;55.90
1429;DHT22;708;51.442;7.016;2022-07-03T15:52:03;29.70;55.30
1429;DHT22;708;51.442;7.016;2022-07-03T15:54:44;29.60;55.20
1429;DHT22;708;51.442;7.016;2022-07-03T15:57:19;29.40;55.70
1429;DHT22;708;51.442;7.016;2022-07-03T15:59:47;29.10;56.50
1429;DHT22;708;51.442;7.016;2022-07-03T16:02:26;28.90;56.60
1429;DHT22;708;51.442;7.016;2022-07-03T16:05:03;28.60;57.20
1429;DHT22;708;51.442;7.016;2022-07-03T16:07:34;28.40;57.80
1429;DHT22;708;51.442;7.016;2022-07-03T16:10:03;28.20;58.40
1429;DHT22;708;51.442;7.016;2022-07-03T16:12:30;28.10;59.10
1429;DHT22;708;51.442;7.016;2022-07-03T16:14:59;28.00;58.90
1429;DHT22;708;51.442;7.016;2022-07-03T16:17:27;27.90;59.10
1429;DHT22;708;51.442;7.016;2022-07-03T16:19:55;27.90;59.50
1429;DHT22;708;51.442;7.016;2022-07-03T16:22:24;27.80;59.60
1429;DHT22;708;51.442;7.016;2022-07-03T16:24:55;27.80;59.80
1429;DHT22;708;51.442;7.016;2022-07-03T16:27:23;27.70;60.00
1429;DHT22;708;51.442;7.016;2022-07-03T16:29:50;27.40;60.90
1429;DHT22;708;51.442;7.016;2022-07-03T16:32:20;27.30;61.20
1429;DHT22;708;51.442;7.016;2022-07-03T16:34:52;27.30;61.20
1429;DHT22;708;51.442;7.016;2022-07-03T16:37:25;27.20;61.20
1429;DHT22;708;51.442;7.016;2022-07-03T16:40:00;27.20;61.00
1429;DHT22;708;51.442;7.016;2022-07-03T16:42:30;27.10;60.60
1429;DHT22;708;51.442;7.016;2022-07-03T16:45:02;26.90;60.90
1429;DHT22;708;51.442;7.016;2022-07-03T16:47:30;26.80;61.70